createdAt,value
2023-04-10T00:00:11.304Z,101099.22
2023-04-10T00:01:15.066Z,101097.88
2023-04-10T00:02:26.155Z,101095.72
2023-04-10T00:03:30.192Z,101097.69
2023-04-10T00:04:34.126Z,101107.50
2023-04-10T00:05:37.967Z,101110.53
2023-04-10T00:06:41.627Z,101109.09
2023-04-10T00:07:45.307Z,101102.53
2023-04-10T00:08:48.991Z,101106.75
2023-04-10T00:09:52.736Z,101118.34
2023-04-10T00:10:56.449Z,101111.56
2023-04-10T00:12:01.816Z,101122.72
2023-04-10T00:13:05.496Z,101118.69
2023-04-10T00:14:09.202Z,101132.13
2023-04-10T00:15:13.144Z,101134.56
2023-04-10T00:16:16.942Z,101139.00
2023-04-10T00:17:20.768Z,101120.38
2023-04-10T00:18:24.594Z,101139.59
2023-04-10T00:19:28.442Z,101131.94
2023-04-10T00:20:32.132Z,101141.63
2023-04-10T00:21:38.131Z,101137.38
2023-04-10T00:22:41.884Z,101136.09
2023-04-10T00:23:45.668Z,101150.28
2023-04-10T00:24:49.305Z,101140.97
2023-04-10T00:25:55.834Z,101115.56
2023-04-10T00:27:01.372Z,101141.06
2023-04-10T00:28:05.191Z,101157.22
2023-04-10T00:29:08.962Z,101152.03
2023-04-10T00:30:18.916Z,101150.44
2023-04-10T00:31:22.862Z,101145.38
2023-04-10T00:32:26.857Z,101157.94
2023-04-10T00:33:33.616Z,101135.44
2023-04-10T00:34:46.882Z,101164.81
2023-04-10T00:35:52.391Z,101161.72
2023-04-10T00:36:56.121Z,101164.88
2023-04-10T00:37:59.880Z,101164.00
2023-04-10T00:39:03.609Z,101159.09
2023-04-10T00:40:08.615Z,101159.72
2023-04-10T00:41:12.315Z,101164.69
2023-04-10T00:42:17.659Z,101159.91
2023-04-10T00:43:21.459Z,101162.31
2023-04-10T00:44:25.105Z,101161.34
2023-04-10T00:45:28.948Z,101167.44
2023-04-10T00:46:33.385Z,101156.56
2023-04-10T00:47:39.016Z,101167.38
2023-04-10T00:48:43.035Z,101161.91
2023-04-10T00:49:46.969Z,101159.44
2023-04-10T00:50:50.862Z,101169.47
2023-04-10T00:51:57.872Z,101156.28
2023-04-10T00:53:02.110Z,101148.47
2023-04-10T00:54:06.092Z,101166.16
2023-04-10T00:55:11.735Z,101161.06
2023-04-10T00:56:16.257Z,101164.09
2023-04-10T00:57:21.645Z,101172.38
2023-04-10T00:58:25.389Z,101162.06
2023-04-10T00:59:31.573Z,101170.59
2023-04-10T01:00:35.301Z,101164.81
2023-04-10T01:01:39.111Z,101171.75
2023-04-10T01:02:43.295Z,101167.06
2023-04-10T01:03:47.260Z,101169.53
2023-04-10T01:04:51.300Z,101165.97
2023-04-10T01:06:05.527Z,101166.69
2023-04-10T01:07:16.635Z,101172.78
2023-04-10T01:08:33.898Z,101175.47
2023-04-10T01:09:42.776Z,101184.63
2023-04-10T01:10:52.568Z,101185.34
2023-04-10T01:12:01.366Z,101182.03
2023-04-10T01:13:16.769Z,101179.13
2023-04-10T01:14:31.786Z,101179.50
2023-04-10T01:15:43.417Z,101181.47
2023-04-10T01:16:52.238Z,101184.78
2023-04-10T01:18:03.241Z,101184.28
2023-04-10T01:19:17.654Z,101185.78
2023-04-10T01:20:23.854Z,101175.88
2023-04-10T01:21:28.978Z,101184.22
2023-04-10T01:22:37.271Z,101181.41
2023-04-10T01:24:05.414Z,101162.66
2023-04-10T01:25:30.769Z,101188.53
2023-04-10T01:26:53.854Z,101179.25
2023-04-10T01:28:17.155Z,101185.44
2023-04-10T01:29:26.358Z,101184.28
2023-04-10T01:30:33.098Z,101187.38
2023-04-10T01:31:42.745Z,101185.94
2023-04-10T01:32:46.868Z,101193.66
2023-04-10T01:33:53.696Z,101185.50
2023-04-10T01:35:01.801Z,101200.22
2023-04-10T01:36:09.099Z,101200.22
2023-04-10T01:37:17.504Z,101190.22
2023-04-10T01:38:22.824Z,101207.88
2023-04-10T01:39:28.477Z,101204.06
2023-04-10T01:40:33.827Z,101204.72
2023-04-10T01:41:39.368Z,101204.03
2023-04-10T01:42:48.550Z,101182.97
2023-04-10T01:43:54.058Z,101200.28
2023-04-10T01:45:00.571Z,101204.06
2023-04-10T01:46:05.684Z,101204.38
2023-04-10T01:47:09.487Z,101208.22
2023-04-10T01:48:13.370Z,101205.63
2023-04-10T01:49:18.855Z,101194.59
2023-04-10T01:50:23.501Z,101207.06
2023-04-10T01:51:28.017Z,101198.00
2023-04-10T01:52:33.443Z,101206.44
2023-04-10T01:53:39.548Z,101211.50
2023-04-10T01:54:44.551Z,101171.09
2023-04-10T01:55:48.863Z,101202.94
2023-04-10T01:56:52.625Z,101210.72
2023-04-10T01:57:56.658Z,101203.59
2023-04-10T01:59:01.061Z,101213.13
2023-04-10T02:00:07.492Z,101207.88
2023-04-10T02:01:22.506Z,101181.78
2023-04-10T02:02:33.482Z,101215.38
2023-04-10T02:03:37.491Z,101206.72
2023-04-10T02:04:41.489Z,101211.78
2023-04-10T02:05:57.824Z,101209.50
2023-04-10T02:07:12.621Z,101175.06
2023-04-10T02:08:22.411Z,101212.94
2023-04-10T02:09:32.686Z,101208.69
2023-04-10T02:10:42.233Z,101214.91
2023-04-10T02:11:52.858Z,101212.25
2023-04-10T02:13:02.250Z,101209.03
2023-04-10T02:14:20.532Z,101211.81
2023-04-10T02:15:28.847Z,101193.72
2023-04-10T02:16:34.145Z,101217.22
2023-04-10T02:17:40.502Z,101202.72
2023-04-10T02:18:46.069Z,101219.06
2023-04-10T02:19:52.059Z,101186.91
2023-04-10T02:20:56.135Z,101197.75
2023-04-10T02:22:00.104Z,101212.69
2023-04-10T02:23:07.147Z,101217.09
2023-04-10T02:24:10.876Z,101203.63
2023-04-10T02:25:15.168Z,101209.06
2023-04-10T02:26:18.862Z,101173.56
2023-04-10T02:27:30.986Z,101205.56
2023-04-10T02:28:34.773Z,101214.53
2023-04-10T02:29:38.460Z,101180.28
2023-04-10T02:30:43.793Z,101211.44
2023-04-10T02:31:47.843Z,101216.63
2023-04-10T02:32:51.604Z,101202.34
2023-04-10T02:33:55.700Z,101221.28
2023-04-10T02:34:59.972Z,101213.19
2023-04-10T02:36:03.716Z,101217.56
2023-04-10T02:37:07.430Z,101222.16
2023-04-10T02:38:11.185Z,101213.19
2023-04-10T02:39:14.950Z,101214.81
2023-04-10T02:40:18.783Z,101207.97
2023-04-10T02:41:22.439Z,101213.88
2023-04-10T02:42:26.230Z,101215.03
2023-04-10T02:43:29.998Z,101208.31
2023-04-10T02:44:33.746Z,101194.97
2023-04-10T02:45:37.450Z,101213.63
2023-04-10T02:46:42.937Z,101201.59
2023-04-10T02:47:46.828Z,101217.09
2023-04-10T02:48:50.574Z,101215.56
2023-04-10T02:49:54.303Z,101200.69
2023-04-10T02:50:58.902Z,101213.31
2023-04-10T02:52:02.643Z,101205.09
2023-04-10T02:53:06.312Z,101198.81
2023-04-10T02:54:10.033Z,101194.66
2023-04-10T02:55:13.848Z,101206.22
2023-04-10T02:56:20.529Z,101214.69
2023-04-10T02:57:24.179Z,101192.75
2023-04-10T02:58:29.278Z,101202.94
2023-04-10T02:59:32.939Z,101186.56
2023-04-10T03:00:36.715Z,101193.44
2023-04-10T03:01:42.169Z,101195.25
2023-04-10T03:02:46.244Z,101180.38
2023-04-10T03:03:50.389Z,101189.22
2023-04-10T03:04:54.279Z,101194.75
2023-04-10T03:05:58.103Z,101192.19
2023-04-10T03:07:01.826Z,101189.78
2023-04-10T03:08:05.863Z,101191.44
2023-04-10T03:09:09.528Z,101189.66
2023-04-10T03:10:13.407Z,101209.00
2023-04-10T03:11:17.191Z,101200.69
2023-04-10T03:12:20.876Z,101190.44
2023-04-10T03:13:24.608Z,101191.44
2023-04-10T03:14:28.463Z,101170.28
2023-04-10T03:15:32.118Z,101183.59
2023-04-10T03:16:35.798Z,101188.56
2023-04-10T03:17:41.247Z,101189.59
2023-04-10T03:18:44.887Z,101184.59
2023-04-10T03:19:48.591Z,101187.22
2023-04-10T03:20:52.490Z,101191.59
2023-04-10T03:21:56.190Z,101192.13
2023-04-10T03:22:59.891Z,101191.94
2023-04-10T03:24:03.603Z,101196.47
2023-04-10T03:25:08.050Z,101180.03
2023-04-10T03:26:11.795Z,101184.66
2023-04-10T03:27:15.533Z,101188.19
2023-04-10T03:28:19.224Z,101185.38
2023-04-10T03:29:22.945Z,101184.09
2023-04-10T03:30:26.741Z,101185.94
2023-04-10T03:31:31.140Z,101167.88
2023-04-10T03:32:34.874Z,101186.06
2023-04-10T03:33:40.200Z,101188.81
2023-04-10T03:34:43.942Z,101190.44
2023-04-10T03:35:48.446Z,101179.69
2023-04-10T03:36:52.847Z,101189.00
2023-04-10T03:37:56.603Z,101172.50
2023-04-10T03:39:00.286Z,101176.94
2023-04-10T03:40:08.217Z,101188.03
2023-04-10T03:41:11.927Z,101181.84
2023-04-10T03:42:15.658Z,101184.09
2023-04-10T03:43:19.306Z,101182.59
2023-04-10T03:44:22.934Z,101173.53
2023-04-10T03:45:26.663Z,101181.31
2023-04-10T03:46:30.390Z,101143.38
2023-04-10T03:47:34.900Z,101177.75
2023-04-10T03:48:40.283Z,101177.00
2023-04-10T03:49:44.051Z,101176.59
2023-04-10T03:50:47.913Z,101171.34
2023-04-10T03:51:51.598Z,101174.22
2023-04-10T03:52:55.384Z,101161.84
2023-04-10T03:53:59.073Z,101171.06
2023-04-10T03:55:02.789Z,101139.78
2023-04-10T03:56:07.727Z,101172.13
2023-04-10T03:57:11.422Z,101169.09
2023-04-10T03:58:15.104Z,101169.03
2023-04-10T03:59:18.852Z,101169.50
2023-04-10T04:00:22.627Z,101173.97
2023-04-10T04:01:26.354Z,101164.88
2023-04-10T04:02:30.205Z,101164.22
2023-04-10T04:03:34.228Z,101167.38
2023-04-10T04:04:40.142Z,101157.09
2023-04-10T04:05:43.854Z,101159.09
2023-04-10T04:06:47.936Z,101167.69
2023-04-10T04:07:51.674Z,101154.44
2023-04-10T04:08:55.436Z,101153.16
2023-04-10T04:09:59.229Z,101145.53
2023-04-10T04:11:03.473Z,101148.31
2023-04-10T04:12:07.184Z,101148.31
2023-04-10T04:13:10.909Z,101148.56
2023-04-10T04:14:14.611Z,101150.47
2023-04-10T04:15:18.377Z,101139.00
2023-04-10T04:16:22.274Z,101141.72
2023-04-10T04:17:33.091Z,101139.56
2023-04-10T04:18:36.828Z,101145.91
2023-04-10T04:19:42.182Z,101143.13
2023-04-10T04:20:45.905Z,101150.00
2023-04-10T04:21:49.701Z,101152.47
2023-04-10T04:22:53.516Z,101145.88
2023-04-10T04:23:57.246Z,101111.66
2023-04-10T04:25:00.902Z,101132.66
2023-04-10T04:26:04.813Z,101127.31
2023-04-10T04:27:09.166Z,101100.75
2023-04-10T04:28:12.873Z,101137.22
2023-04-10T04:29:16.652Z,101135.63
2023-04-10T04:30:20.361Z,101140.16
2023-04-10T04:31:24.201Z,101132.22
2023-04-10T04:32:28.034Z,101130.94
2023-04-10T04:33:40.620Z,101128.72
2023-04-10T04:34:49.982Z,101136.78
2023-04-10T04:35:53.747Z,101134.91
2023-04-10T04:36:57.505Z,101124.88
2023-04-10T04:38:01.286Z,101119.84
2023-04-10T04:39:05.250Z,101124.53
2023-04-10T04:40:10.020Z,101120.28
2023-04-10T04:41:13.768Z,101116.81
2023-04-10T04:42:17.456Z,101117.00
2023-04-10T04:43:21.119Z,101122.50
2023-04-10T04:44:24.772Z,101114.13
2023-04-10T04:45:28.651Z,101117.09
2023-04-10T04:46:32.327Z,101103.28
2023-04-10T04:47:36.059Z,101115.97
2023-04-10T04:48:39.876Z,101114.34
2023-04-10T04:49:45.658Z,101101.34
2023-04-10T04:50:49.301Z,101109.72
2023-04-10T04:51:52.926Z,101108.28
2023-04-10T04:52:56.662Z,101093.78
2023-04-10T04:54:00.872Z,101107.19
2023-04-10T04:55:04.798Z,101087.91
2023-04-10T04:56:09.376Z,101083.31
2023-04-10T04:57:13.071Z,101087.00
2023-04-10T04:58:16.770Z,101082.06
2023-04-10T04:59:20.738Z,101079.19
2023-04-10T05:00:24.545Z,101077.59
2023-04-10T05:01:28.300Z,101073.38
2023-04-10T05:02:32.164Z,101067.38
2023-04-10T05:03:36.216Z,101072.94
2023-04-10T05:04:40.099Z,101076.06
2023-04-10T05:05:45.591Z,101076.47
2023-04-10T05:06:49.342Z,101077.63
2023-04-10T05:07:53.054Z,101059.13
2023-04-10T05:08:56.935Z,101066.09
2023-04-10T05:10:00.632Z,101063.91
2023-04-10T05:11:04.499Z,101071.75
2023-04-10T05:12:08.229Z,101063.88
2023-04-10T05:13:11.882Z,101064.28
2023-04-10T05:14:15.690Z,101060.06
2023-04-10T05:15:19.494Z,101073.13
2023-04-10T05:16:23.346Z,101060.06
2023-04-10T05:17:27.311Z,101064.16
2023-04-10T05:18:31.115Z,101053.06
2023-04-10T05:19:34.912Z,101052.78
2023-04-10T05:20:39.144Z,101052.47
2023-04-10T05:21:44.748Z,101051.53
2023-04-10T05:22:48.420Z,101049.94
2023-04-10T05:23:52.243Z,101051.03
2023-04-10T05:24:55.965Z,101044.00
2023-04-10T05:25:59.724Z,101049.22
2023-04-10T05:27:03.615Z,101042.25
2023-04-10T05:28:07.259Z,101032.75
2023-04-10T05:29:10.976Z,101032.56
2023-04-10T05:30:14.833Z,101035.25
2023-04-10T05:31:18.602Z,101020.91
2023-04-10T05:32:22.400Z,101028.63
2023-04-10T05:33:26.088Z,101029.59
2023-04-10T05:34:29.791Z,101031.63
2023-04-10T05:35:33.502Z,101022.56
2023-04-10T05:36:37.277Z,101022.66
2023-04-10T05:37:42.639Z,101010.44
2023-04-10T05:38:46.305Z,101019.91
2023-04-10T05:39:49.947Z,101017.94
2023-04-10T05:40:53.641Z,101010.25
2023-04-10T05:41:57.386Z,101006.09
2023-04-10T05:43:01.181Z,100998.34
2023-04-10T05:44:04.858Z,101011.56
2023-04-10T05:45:09.173Z,100995.56
2023-04-10T05:46:12.914Z,101002.91
2023-04-10T05:47:16.684Z,101001.47
2023-04-10T05:48:20.394Z,100998.81
2023-04-10T05:49:24.188Z,101001.38
2023-04-10T05:50:30.372Z,101005.75
2023-04-10T05:51:34.792Z,100998.69
2023-04-10T05:52:38.540Z,100992.41
2023-04-10T05:53:43.948Z,100987.50
2023-04-10T05:54:47.613Z,100985.28
2023-04-10T05:55:51.759Z,100979.41
2023-04-10T05:56:55.453Z,100985.59
2023-04-10T05:57:59.151Z,100976.91
2023-04-10T05:59:02.853Z,100949.22
2023-04-10T06:00:07.629Z,100975.38
2023-04-10T06:01:11.387Z,100973.63
2023-04-10T06:02:15.277Z,100968.59
2023-04-10T06:03:19.053Z,100965.25
2023-04-10T06:04:23.001Z,100960.50
2023-04-10T06:05:26.922Z,100961.78
2023-04-10T06:06:30.723Z,100966.34
2023-04-10T06:07:34.423Z,100958.88
2023-04-10T06:08:38.096Z,100954.44
2023-04-10T06:09:43.421Z,100957.91
2023-04-10T06:10:47.951Z,100952.66
2023-04-10T06:11:51.709Z,100950.56
2023-04-10T06:12:55.317Z,100946.16
2023-04-10T06:13:59.016Z,100938.94
2023-04-10T06:15:02.664Z,100939.47
2023-04-10T06:16:07.155Z,100906.16
2023-04-10T06:17:10.851Z,100935.06
2023-04-10T06:18:14.513Z,100937.22
2023-04-10T06:19:18.634Z,100937.72
2023-04-10T06:20:22.593Z,100919.41
2023-04-10T06:21:26.399Z,100923.88
2023-04-10T06:22:30.138Z,100910.31
2023-04-10T06:23:33.931Z,100913.47
2023-04-10T06:24:37.641Z,100916.97
2023-04-10T06:25:43.077Z,100924.50
2023-04-10T06:26:46.756Z,100911.56
2023-04-10T06:27:50.580Z,100905.88
2023-04-10T06:28:54.558Z,100911.25
2023-04-10T06:29:58.427Z,100884.38
2023-04-10T06:31:02.118Z,100916.97
2023-04-10T06:32:05.885Z,100900.75
2023-04-10T06:33:09.678Z,100898.06
2023-04-10T06:34:13.396Z,100895.66
2023-04-10T06:35:17.025Z,100878.88
2023-04-10T06:36:20.749Z,100892.03
2023-04-10T06:37:29.499Z,100884.59
2023-04-10T06:38:33.306Z,100881.00
2023-04-10T06:39:37.206Z,100883.47
2023-04-10T06:40:42.709Z,100883.94
2023-04-10T06:41:46.397Z,100882.69
2023-04-10T06:42:49.979Z,100882.16
2023-04-10T06:43:53.595Z,100880.28
2023-04-10T06:44:57.487Z,100881.88
2023-04-10T06:46:01.329Z,100867.47
2023-04-10T06:47:05.246Z,100877.56
2023-04-10T06:48:09.168Z,100871.19
2023-04-10T06:49:13.102Z,100865.28
2023-04-10T06:50:16.715Z,100869.75
2023-04-10T06:51:20.506Z,100864.84
2023-04-10T06:52:24.213Z,100856.06
2023-04-10T06:53:28.380Z,100835.75
2023-04-10T06:54:32.187Z,100839.25
2023-04-10T06:55:35.898Z,100848.84
2023-04-10T06:56:41.312Z,100850.00
2023-04-10T06:57:45.017Z,100844.06
2023-04-10T06:58:48.724Z,100838.66
2023-04-10T06:59:52.443Z,100827.63
2023-04-10T07:00:56.206Z,100832.00
2023-04-10T07:02:00.025Z,100837.03
2023-04-10T07:03:03.798Z,100833.47
2023-04-10T07:04:07.764Z,100832.66
2023-04-10T07:05:11.670Z,100820.81
2023-04-10T07:06:15.388Z,100824.91
2023-04-10T07:07:19.079Z,100821.19
2023-04-10T07:08:22.673Z,100821.28
2023-04-10T07:09:27.206Z,100824.72
2023-04-10T07:10:30.938Z,100815.66
2023-04-10T07:11:34.699Z,100813.38
2023-04-10T07:12:40.118Z,100821.97
2023-04-10T07:13:43.800Z,100813.91
2023-04-10T07:14:47.508Z,100814.03
2023-04-10T07:15:51.221Z,100813.28
2023-04-10T07:16:54.981Z,100786.34
2023-04-10T07:17:58.744Z,100816.72
2023-04-10T07:19:02.600Z,100810.97
2023-04-10T07:20:07.601Z,100806.97
2023-04-10T07:21:12.530Z,100803.97
2023-04-10T07:22:16.204Z,100800.44
2023-04-10T07:23:19.950Z,100797.91
2023-04-10T07:24:23.661Z,100798.59
2023-04-10T07:25:27.391Z,100790.47
2023-04-10T07:26:31.086Z,100782.13
2023-04-10T07:27:34.905Z,100783.03
2023-04-10T07:28:40.213Z,100780.31
2023-04-10T07:29:43.957Z,100783.56
2023-04-10T07:30:47.650Z,100767.22
2023-04-10T07:31:51.504Z,100779.28
2023-04-10T07:32:55.627Z,100767.75
2023-04-10T07:33:59.495Z,100778.47
2023-04-10T07:35:03.198Z,100772.91
2023-04-10T07:36:07.588Z,100771.41
2023-04-10T07:37:11.435Z,100765.50
2023-04-10T07:38:15.337Z,100765.91
2023-04-10T07:39:19.006Z,100769.47
2023-04-10T07:40:22.671Z,100755.97
2023-04-10T07:41:26.347Z,100763.84
2023-04-10T07:42:30.034Z,100761.47
2023-04-10T07:43:33.817Z,100754.13
2023-04-10T07:44:39.242Z,100755.50
2023-04-10T07:45:42.980Z,100756.50
2023-04-10T07:46:46.726Z,100765.69
2023-04-10T07:47:50.437Z,100750.94
2023-04-10T07:48:54.317Z,100759.88
2023-04-10T07:49:58.228Z,100759.69
2023-04-10T07:51:01.980Z,100763.16
2023-04-10T07:52:05.912Z,100745.34
2023-04-10T07:53:09.669Z,100754.97
2023-04-10T07:54:13.530Z,100760.75
2023-04-10T07:55:17.300Z,100753.63
2023-04-10T07:56:21.652Z,100734.19
2023-04-10T07:57:25.360Z,100741.06
2023-04-10T07:58:29.123Z,100734.22
2023-04-10T07:59:32.957Z,100711.56
2023-04-10T20:01:26.691Z,100829.47
2023-04-10T20:02:30.574Z,100826.25
2023-04-10T20:03:34.594Z,100819.59
2023-04-10T20:04:38.603Z,100828.00
2023-04-10T20:05:42.552Z,100814.63
2023-04-10T20:06:46.298Z,100821.97
2023-04-10T20:07:50.009Z,100824.53
2023-04-10T20:08:54.173Z,100816.50
2023-04-10T20:09:58.116Z,100831.88
2023-04-10T20:11:01.889Z,100821.75
2023-04-10T20:12:06.057Z,100816.56
2023-04-10T20:13:09.706Z,100825.91
2023-04-10T20:14:13.388Z,100817.50
2023-04-10T20:15:17.120Z,100819.53
2023-04-10T20:16:20.886Z,100819.00
2023-04-10T20:17:26.553Z,100826.59
2023-04-10T20:18:31.758Z,100827.41
2023-04-10T20:19:35.417Z,100827.88
2023-04-10T20:20:39.151Z,100829.44
2023-04-10T20:21:42.825Z,100823.13
2023-04-10T20:22:46.543Z,100818.44
2023-04-10T20:23:50.293Z,100827.63
2023-04-10T20:24:54.029Z,100823.03
2023-04-10T20:25:57.765Z,100819.22
2023-04-10T20:27:01.625Z,100824.19
2023-04-10T20:28:05.515Z,100822.56
2023-04-10T20:29:09.158Z,100823.84
2023-04-10T20:30:13.100Z,100817.63
2023-04-10T20:31:16.715Z,100822.44
2023-04-10T20:32:20.478Z,100813.16
2023-04-10T20:33:25.863Z,100823.00
2023-04-10T20:34:29.473Z,100814.53
2023-04-10T20:35:33.091Z,100809.34
2023-04-10T20:36:36.775Z,100818.41
2023-04-10T20:37:40.442Z,100821.56
2023-04-10T20:38:44.168Z,100806.81
2023-04-10T20:39:47.876Z,100813.63
2023-04-10T20:40:51.504Z,100809.13
2023-04-10T20:41:55.257Z,100803.25
2023-04-10T20:42:58.996Z,100805.22
2023-04-10T20:44:02.752Z,100804.88
2023-04-10T20:45:07.262Z,100809.94
2023-04-10T20:46:11.008Z,100810.31
2023-04-10T20:47:14.883Z,100807.41
2023-04-10T20:48:18.642Z,100805.56
2023-04-10T20:49:24.073Z,100811.88
2023-04-10T20:50:27.786Z,100808.56
2023-04-10T20:51:31.563Z,100805.06
2023-04-10T20:52:35.288Z,100808.69
2023-04-10T20:53:39.118Z,100803.59
2023-04-10T20:54:42.804Z,100801.75
2023-04-10T20:55:46.481Z,100797.63
2023-04-10T20:56:50.235Z,100799.91
2023-04-10T20:57:53.973Z,100797.19
2023-04-10T20:58:57.665Z,100801.19
2023-04-10T21:00:01.360Z,100798.31
2023-04-10T21:01:05.191Z,100800.97
2023-04-10T21:02:08.967Z,100795.31
2023-04-10T21:03:13.066Z,100804.41
2023-04-10T21:04:17.005Z,100792.22
2023-04-10T21:05:22.389Z,100805.19
2023-04-10T21:06:26.119Z,100808.97
2023-04-10T21:07:29.923Z,100805.56
2023-04-10T21:08:33.645Z,100793.03
2023-04-10T21:09:37.560Z,100798.31
2023-04-10T21:10:41.408Z,100804.06
2023-04-10T21:11:45.119Z,100804.41
2023-04-10T21:12:48.745Z,100806.50
2023-04-10T21:13:52.417Z,100808.19
2023-04-10T21:14:56.108Z,100802.09
2023-04-10T21:15:59.821Z,100799.91
2023-04-10T21:17:03.775Z,100793.94
2023-04-10T21:18:07.918Z,100804.75
2023-04-10T21:19:11.832Z,100801.75
2023-04-10T21:20:15.532Z,100808.09
2023-04-10T21:21:20.897Z,100800.84
2023-04-10T21:22:24.608Z,100806.53
2023-04-10T21:23:28.354Z,100806.94
2023-04-10T21:24:32.030Z,100805.69
2023-04-10T21:25:36.639Z,100804.06
2023-04-10T21:26:40.326Z,100812.34
2023-04-10T21:27:44.009Z,100804.28
2023-04-10T21:28:47.667Z,100804.06
2023-04-10T21:29:51.504Z,100809.50
2023-04-10T21:30:55.293Z,100806.50
2023-04-10T21:31:58.984Z,100811.06
2023-04-10T21:33:02.758Z,100803.69
2023-04-10T21:34:06.622Z,100811.06
2023-04-10T21:35:10.863Z,100810.94
2023-04-10T21:36:14.569Z,100787.63
2023-04-10T21:37:19.942Z,100814.97
2023-04-10T21:38:23.897Z,100811.66
2023-04-10T21:39:27.580Z,100823.50
2023-04-10T21:40:31.301Z,100814.97
2023-04-10T21:41:35.026Z,100820.97
2023-04-10T21:42:38.895Z,100821.44
2023-04-10T21:43:42.515Z,100786.97
2023-04-10T21:44:46.187Z,100806.22
2023-04-10T21:45:50.045Z,100823.00
2023-04-10T21:46:53.787Z,100823.13
2023-04-10T21:47:57.495Z,100827.63
2023-04-10T21:49:01.304Z,100827.84
2023-04-10T21:50:13.839Z,100831.97
2023-04-10T21:51:17.480Z,100825.44
2023-04-10T21:52:22.832Z,100819.59
2023-04-10T21:53:26.445Z,100825.41
2023-04-10T21:54:30.429Z,100811.72
2023-04-10T21:55:34.312Z,100828.88
2023-04-10T21:56:37.971Z,100830.16
2023-04-10T21:57:41.650Z,100834.16
2023-04-10T21:58:45.386Z,100827.84
2023-04-10T21:59:49.198Z,100830.84
2023-04-10T22:00:52.953Z,100830.75
2023-04-10T22:01:56.785Z,100838.41
2023-04-10T22:03:00.796Z,100827.97
2023-04-10T22:04:04.783Z,100836.38
2023-04-10T22:05:09.152Z,100838.44
2023-04-10T22:06:12.932Z,100841.06
2023-04-10T22:07:16.680Z,100836.38
2023-04-10T22:08:22.059Z,100844.22
2023-04-10T22:09:25.725Z,100846.16
2023-04-10T22:10:29.415Z,100847.72
2023-04-10T22:11:33.080Z,100845.66
2023-04-10T22:12:36.768Z,100849.81
2023-04-10T22:13:40.436Z,100845.53
2023-04-10T22:14:44.234Z,100854.63
2023-04-10T22:15:48.332Z,100852.81
2023-04-10T22:16:52.070Z,100853.16
2023-04-10T22:17:55.790Z,100842.34
2023-04-10T22:18:59.610Z,100845.91
2023-04-10T22:20:03.504Z,100838.78
2023-04-10T22:21:07.740Z,100856.47
2023-04-10T22:22:11.382Z,100852.09
2023-04-10T22:23:15.037Z,100858.09
2023-04-10T22:24:20.417Z,100855.22
2023-04-10T22:25:24.084Z,100864.53
2023-04-10T22:26:27.760Z,100866.22
2023-04-10T22:27:31.414Z,100861.44
2023-04-10T22:28:35.067Z,100871.63
2023-04-10T22:29:39.067Z,100873.03
2023-04-10T22:30:43.474Z,100868.41
2023-04-10T22:31:47.191Z,100868.66
2023-04-10T22:32:51.064Z,100857.63
2023-04-10T22:33:54.818Z,100869.94
2023-04-10T22:34:59.972Z,100870.97
2023-04-10T22:36:03.897Z,100869.78
2023-04-10T22:37:07.771Z,100890.09
2023-04-10T22:38:11.528Z,100883.94
2023-04-10T22:39:15.277Z,100865.53
2023-04-10T22:40:20.687Z,100874.38
2023-04-10T22:41:24.353Z,100871.78
2023-04-10T22:42:30.517Z,100887.97
2023-04-10T22:43:35.808Z,100883.59
2023-04-10T22:44:39.498Z,100883.38
2023-04-10T22:45:43.465Z,100882.69
2023-04-10T22:46:47.306Z,100890.63
2023-04-10T22:47:51.119Z,100893.47
2023-04-10T22:48:55.774Z,100891.97
2023-04-10T22:49:59.642Z,100884.25
2023-04-10T22:51:03.442Z,100911.38
2023-04-10T22:52:08.251Z,100896.31
2023-04-10T22:53:12.178Z,100905.44
2023-04-10T22:54:16.052Z,100901.28
2023-04-10T22:55:21.501Z,100896.31
2023-04-10T22:56:25.172Z,100908.94
2023-04-10T22:57:28.901Z,100910.47
2023-04-10T22:58:32.636Z,100902.88
2023-04-10T22:59:37.593Z,100886.44
2023-04-10T23:00:41.323Z,100904.50
2023-04-10T23:01:45.111Z,100896.63
2023-04-10T23:02:49.157Z,100881.38
2023-04-10T23:03:53.258Z,100910.66
2023-04-10T23:04:56.982Z,100910.13
2023-04-10T23:06:00.751Z,100909.22
2023-04-10T23:07:04.434Z,100909.81
2023-04-10T23:08:08.139Z,100898.78
2023-04-10T23:09:11.850Z,100913.22
2023-04-10T23:10:15.613Z,100926.16
2023-04-10T23:11:21.112Z,100913.94
2023-04-10T23:12:24.817Z,100914.97
2023-04-10T23:13:28.510Z,100921.06
2023-04-10T23:14:35.100Z,100919.28
2023-04-10T23:15:39.224Z,100921.47
2023-04-10T23:16:45.790Z,100924.94
2023-04-10T23:17:49.526Z,100921.66
2023-04-10T23:18:53.442Z,100928.72
2023-04-10T23:19:57.364Z,100925.28
2023-04-10T23:21:05.979Z,100928.25
2023-04-10T23:22:09.680Z,100924.09
2023-04-10T23:23:13.340Z,100929.28
2023-04-10T23:24:17.132Z,100933.22
2023-04-10T23:25:20.846Z,100928.44
2023-04-10T23:26:26.198Z,100936.94
2023-04-10T23:27:30.203Z,100939.84
2023-04-10T23:28:34.032Z,100932.09
2023-04-10T23:29:37.869Z,100936.00
2023-04-10T23:30:41.527Z,100943.59
2023-04-10T23:31:45.459Z,100951.66
2023-04-10T23:32:49.177Z,100943.97
2023-04-10T23:33:52.941Z,100950.28
2023-04-10T23:34:56.654Z,100948.78
2023-04-10T23:36:00.393Z,100950.06
2023-04-10T23:37:04.203Z,100952.13
2023-04-10T23:38:08.012Z,100942.22
2023-04-10T23:39:11.622Z,100957.63
2023-04-10T23:40:15.537Z,100960.78
2023-04-10T23:41:19.218Z,100956.91
2023-04-10T23:42:24.663Z,100966.47
2023-04-10T23:43:28.353Z,100960.16
2023-04-10T23:44:32.102Z,100970.53
2023-04-10T23:45:35.788Z,100963.56
2023-04-10T23:46:39.505Z,100973.56
2023-04-10T23:47:43.197Z,100969.00
2023-04-10T23:48:46.924Z,100972.88
2023-04-10T23:49:50.561Z,100980.69
2023-04-10T23:51:03.988Z,100976.22
2023-04-10T23:52:07.723Z,100963.06
2023-04-10T23:53:12.733Z,100977.19
2023-04-10T23:54:17.654Z,100974.69
2023-04-10T23:55:21.588Z,100982.91
2023-04-10T23:56:25.314Z,100985.06
2023-04-10T23:57:30.667Z,100990.97
2023-04-10T23:58:34.293Z,100986.03
2023-04-10T23:59:37.981Z,100999.44
